createdAt,value
2022-09-26T00:00:32.447Z,14.11
2022-09-26T00:02:04.020Z,14.12
2022-09-26T00:03:35.596Z,14.16
2022-09-26T00:05:10.429Z,14.16
2022-09-26T00:06:42.019Z,14.15
2022-09-26T00:08:13.856Z,14.12
2022-09-26T00:09:45.543Z,14.10
2022-09-26T00:11:18.458Z,14.07
2022-09-26T00:12:51.329Z,14.06
2022-09-26T00:14:24.232Z,14.04
2022-09-26T00:15:56.055Z,14.03
2022-09-26T00:17:27.501Z,14.02
2022-09-26T00:18:59.369Z,14.04
2022-09-26T00:20:30.872Z,14.03
2022-09-26T00:22:02.307Z,14.05
2022-09-26T00:23:33.752Z,14.07
2022-09-26T00:25:05.604Z,14.04
2022-09-26T00:26:37.464Z,14.05
2022-09-26T00:28:10.238Z,14.05
2022-09-26T00:29:41.669Z,14.07
2022-09-26T00:31:13.999Z,14.08
2022-09-26T00:32:45.801Z,14.11
2022-09-26T00:34:18.669Z,14.12
2022-09-26T00:35:51.052Z,14.09
2022-09-26T00:37:22.529Z,14.08
2022-09-26T00:38:54.014Z,14.07
2022-09-26T00:40:27.079Z,14.09
2022-09-26T00:41:58.608Z,14.10
2022-09-26T00:43:32.341Z,14.11
2022-09-26T00:45:04.210Z,14.13
2022-09-26T00:46:37.435Z,14.12
2022-09-26T00:48:10.593Z,14.10
2022-09-26T00:49:44.428Z,14.08
2022-09-26T00:51:15.930Z,14.07
2022-09-26T00:52:51.182Z,14.07
2022-09-26T00:54:23.359Z,14.07
2022-09-26T00:55:58.676Z,14.04
2022-09-26T00:57:33.357Z,14.00
2022-09-26T00:59:08.808Z,13.98
2022-09-26T01:00:42.410Z,13.95
2022-09-26T01:02:15.041Z,13.91
2022-09-26T01:03:48.616Z,13.85
2022-09-26T01:05:21.976Z,13.82
2022-09-26T01:06:53.933Z,13.82
2022-09-26T01:08:28.470Z,13.83
2022-09-26T01:10:01.279Z,13.81
2022-09-26T01:11:33.973Z,13.76
2022-09-26T01:13:06.724Z,13.78
2022-09-26T01:14:41.138Z,13.76
2022-09-26T01:16:12.698Z,13.76
2022-09-26T01:17:45.476Z,13.74
2022-09-26T01:19:21.923Z,13.72
2022-09-26T01:20:57.173Z,13.68
2022-09-26T01:22:43.229Z,13.65
2022-09-26T01:24:26.628Z,13.59
2022-09-26T01:26:28.815Z,13.59
2022-09-26T01:28:07.569Z,13.58
2022-09-26T01:29:53.882Z,13.57
2022-09-26T01:31:33.280Z,13.51
2022-09-26T01:33:19.254Z,13.50
2022-09-26T01:34:57.046Z,13.48
2022-09-26T01:36:44.772Z,13.46
2022-09-26T01:38:23.321Z,13.46
2022-09-26T01:39:59.029Z,13.47
2022-09-26T01:41:37.240Z,13.46
2022-09-26T01:43:13.354Z,13.46
2022-09-26T01:44:48.779Z,13.47
2022-09-26T01:46:25.098Z,13.47
2022-09-26T01:48:01.141Z,13.47
2022-09-26T01:49:35.003Z,13.46
2022-09-26T01:51:09.834Z,13.47
2022-09-26T01:52:44.932Z,13.45
2022-09-26T01:54:17.927Z,13.44
2022-09-26T01:55:53.365Z,13.39
2022-09-26T01:57:28.336Z,13.41
2022-09-26T01:59:03.406Z,13.39
2022-09-26T02:00:36.349Z,13.41
2022-09-26T02:02:12.138Z,13.45
2022-09-26T02:03:46.684Z,13.46
2022-09-26T02:05:20.814Z,13.48
2022-09-26T02:06:55.396Z,13.51
2022-09-26T02:08:30.921Z,13.51
2022-09-26T02:10:07.697Z,13.54
2022-09-26T02:11:41.205Z,13.53
2022-09-26T02:13:14.858Z,13.53
2022-09-26T02:14:49.558Z,13.54
2022-09-26T02:16:25.071Z,13.54
2022-09-26T02:18:00.604Z,13.51
2022-09-26T02:19:36.871Z,13.53
2022-09-26T02:21:12.058Z,13.55
2022-09-26T02:22:43.961Z,13.53
2022-09-26T02:24:19.694Z,13.54
2022-09-26T02:25:51.434Z,13.51
2022-09-26T02:27:22.956Z,13.50
2022-09-26T02:28:55.876Z,13.48
2022-09-26T02:30:27.354Z,13.48
2022-09-26T02:32:02.905Z,13.51
2022-09-26T02:33:34.995Z,13.54
2022-09-26T02:35:34.769Z,13.55
2022-09-26T02:37:07.810Z,13.58
2022-09-26T02:38:39.241Z,13.56
2022-09-26T02:40:42.164Z,13.52
2022-09-26T02:42:19.047Z,13.50
2022-09-26T02:44:00.325Z,13.44
2022-09-26T02:45:36.082Z,13.41
2022-09-26T02:47:20.584Z,13.42
2022-09-26T02:49:00.155Z,13.41
2022-09-26T02:50:49.258Z,13.41
2022-09-26T02:52:31.431Z,13.41
2022-09-26T02:54:09.616Z,13.45
2022-09-26T02:55:57.208Z,13.43
2022-09-26T02:57:32.696Z,13.43
2022-09-26T02:59:07.959Z,13.40
2022-09-26T03:00:48.231Z,13.41
2022-09-26T03:02:23.681Z,13.41
2022-09-26T03:04:18.299Z,13.40
2022-09-26T03:05:52.068Z,13.40
2022-09-26T03:07:28.141Z,13.42
2022-09-26T03:09:02.032Z,13.42
2022-09-26T03:10:34.170Z,13.41
2022-09-26T03:12:07.076Z,13.40
2022-09-26T03:13:39.305Z,13.39
2022-09-26T03:15:12.252Z,13.39
2022-09-26T03:16:44.894Z,13.40
2022-09-26T03:18:19.193Z,13.36
2022-09-26T03:19:55.025Z,13.37
2022-09-26T03:21:27.335Z,13.38
2022-09-26T03:22:59.143Z,13.40
2022-09-26T03:24:32.744Z,13.40
2022-09-26T03:26:07.625Z,13.42
2022-09-26T03:27:44.001Z,13.40
2022-09-26T03:29:15.709Z,13.40
2022-09-26T03:30:47.297Z,13.39
2022-09-26T03:32:32.260Z,13.38
2022-09-26T03:34:03.787Z,13.38
2022-09-26T03:35:36.095Z,13.36
2022-09-26T03:37:09.330Z,13.39
2022-09-26T03:38:42.502Z,13.39
2022-09-26T03:40:29.868Z,13.36
2022-09-26T03:42:27.433Z,13.34
2022-09-26T03:43:59.723Z,13.32
2022-09-26T03:45:41.155Z,13.34
2022-09-26T03:47:20.109Z,13.31
2022-09-26T03:48:54.708Z,13.28
2022-09-26T03:50:26.334Z,13.27
2022-09-26T03:51:57.813Z,13.28
2022-09-26T03:53:30.907Z,13.27
2022-09-26T03:55:02.406Z,13.29
2022-09-26T03:56:35.299Z,13.29
2022-09-26T03:58:07.038Z,13.32
2022-09-26T03:59:42.441Z,13.30
2022-09-26T04:01:16.641Z,13.28
2022-09-26T04:02:48.443Z,13.29
2022-09-26T04:04:40.173Z,13.29
2022-09-26T04:06:13.598Z,13.26
2022-09-26T04:07:45.249Z,13.27
2022-09-26T04:09:17.533Z,13.29
2022-09-26T04:10:53.960Z,13.26
2022-09-26T04:12:27.795Z,13.25
2022-09-26T04:13:59.249Z,13.25
2022-09-26T04:15:35.585Z,13.26
2022-09-26T04:17:15.768Z,13.26
2022-09-26T04:18:50.135Z,13.23
2022-09-26T04:20:21.856Z,13.23
2022-09-26T04:21:53.603Z,13.21
2022-09-26T04:23:27.079Z,13.22
2022-09-26T04:24:58.596Z,13.21
2022-09-26T04:26:30.145Z,13.17
2022-09-26T04:28:03.127Z,13.15
2022-09-26T04:29:34.862Z,13.18
2022-09-26T04:31:15.516Z,13.17
2022-09-26T04:32:54.946Z,13.18
2022-09-26T04:34:41.156Z,13.19
2022-09-26T04:36:14.594Z,13.18
2022-09-26T04:37:46.153Z,13.20
2022-09-26T04:39:18.188Z,13.22
2022-09-26T04:40:51.021Z,13.28
2022-09-26T04:42:25.083Z,13.29
2022-09-26T04:43:58.630Z,13.24
2022-09-26T04:45:30.158Z,13.23
2022-09-26T04:47:01.726Z,13.27
2022-09-26T04:48:51.539Z,13.29
2022-09-26T04:50:25.074Z,13.29
2022-09-26T04:52:09.190Z,13.28
2022-09-26T04:53:41.557Z,13.30
2022-09-26T04:55:25.640Z,13.29
2022-09-26T04:56:59.264Z,13.25
2022-09-26T04:58:30.721Z,13.24
2022-09-26T05:00:04.341Z,13.21
2022-09-26T05:01:37.265Z,13.22
2022-09-26T05:03:16.247Z,13.20
2022-09-26T05:04:48.202Z,13.16
2022-09-26T05:06:20.408Z,13.13
2022-09-26T05:07:54.209Z,13.10
2022-09-26T05:09:36.301Z,13.08
2022-09-26T05:11:16.280Z,13.05
2022-09-26T05:12:47.868Z,13.03
2022-09-26T05:14:19.327Z,13.00
2022-09-26T05:15:55.257Z,13.01
2022-09-26T05:17:27.029Z,13.03
2022-09-26T05:19:01.324Z,13.03
2022-09-26T05:20:33.581Z,12.98
2022-09-26T05:22:05.113Z,12.96
2022-09-26T05:23:55.264Z,12.96
2022-09-26T05:25:47.346Z,12.98
2022-09-26T05:27:21.142Z,12.99
2022-09-26T05:28:53.767Z,12.99
2022-09-26T05:30:31.253Z,12.98
2022-09-26T05:32:04.559Z,12.98
2022-09-26T05:33:40.624Z,12.97
2022-09-26T05:35:13.349Z,12.95
2022-09-26T05:36:46.217Z,12.93
2022-09-26T05:38:17.692Z,12.97
2022-09-26T05:40:08.488Z,12.99
2022-09-26T05:41:44.562Z,13.01
2022-09-26T05:43:16.342Z,13.02
2022-09-26T05:44:48.342Z,13.02
2022-09-26T05:46:19.920Z,13.01
2022-09-26T05:47:56.211Z,13.04
2022-09-26T05:49:27.791Z,13.02
2022-09-26T05:51:02.959Z,13.01
2022-09-26T05:52:34.405Z,13.01
2022-09-26T05:54:05.875Z,13.04
2022-09-26T05:55:40.252Z,13.12
2022-09-26T05:57:14.471Z,13.13
2022-09-26T05:58:54.948Z,13.11
2022-09-26T06:00:47.474Z,13.17
2022-09-26T06:02:21.097Z,13.20
2022-09-26T06:04:12.797Z,13.23
2022-09-26T06:06:03.329Z,13.25
2022-09-26T06:07:36.928Z,13.28
2022-09-26T06:09:09.242Z,13.30
2022-09-26T06:11:14.253Z,13.31
2022-09-26T06:12:50.687Z,13.29
2022-09-26T06:14:25.352Z,13.31
2022-09-26T06:16:00.450Z,13.28
2022-09-26T06:17:32.440Z,13.27
2022-09-26T06:19:03.888Z,13.35
2022-09-26T06:20:36.731Z,13.38
2022-09-26T06:22:08.261Z,13.43
2022-09-26T06:23:39.702Z,13.45
2022-09-26T06:25:12.867Z,13.47
2022-09-26T06:26:44.885Z,13.48
2022-09-26T06:28:16.587Z,13.46
2022-09-26T06:29:48.072Z,13.49
2022-09-26T06:31:19.948Z,13.54
2022-09-26T06:33:10.114Z,13.60
2022-09-26T06:34:59.936Z,13.64
2022-09-26T06:36:53.244Z,13.67
2022-09-26T06:38:24.672Z,13.68
2022-09-26T06:39:59.346Z,13.74
2022-09-26T06:41:31.152Z,13.75
2022-09-26T06:43:02.755Z,13.76
2022-09-26T06:44:53.273Z,13.78
2022-09-26T06:46:33.357Z,13.76
2022-09-26T06:48:23.712Z,13.74
2022-09-26T06:50:22.286Z,13.75
2022-09-26T06:51:58.873Z,13.74
2022-09-26T06:53:31.362Z,13.74
2022-09-26T06:55:04.752Z,13.71
2022-09-26T06:56:36.688Z,13.69
2022-09-26T06:58:08.561Z,13.69
2022-09-26T06:59:53.041Z,13.72
2022-09-26T07:01:42.314Z,13.72
2022-09-26T07:03:27.198Z,13.75
2022-09-26T07:05:10.004Z,13.71
2022-09-26T07:06:46.309Z,13.73
2022-09-26T07:08:25.834Z,13.73
2022-09-26T07:10:10.855Z,13.76
2022-09-26T07:12:13.491Z,13.76
2022-09-26T07:13:42.223Z,13.82
2022-09-26T07:15:14.984Z,13.85
2022-09-26T07:16:48.266Z,13.91
2022-09-26T07:18:46.455Z,13.90
2022-09-26T07:20:22.017Z,13.95
2022-09-26T07:22:08.008Z,13.97
2022-09-26T07:23:48.524Z,13.95
2022-09-26T07:25:23.034Z,13.89
2022-09-26T07:26:55.224Z,13.83
2022-09-26T07:28:27.811Z,13.82
2022-09-26T07:29:59.473Z,13.82
2022-09-26T07:31:31.988Z,13.81
2022-09-26T07:33:17.352Z,13.77
2022-09-26T07:34:55.688Z,13.77
2022-09-26T07:36:28.041Z,13.74
2022-09-26T07:37:59.731Z,13.74
2022-09-26T07:39:32.654Z,13.77
2022-09-26T07:41:04.404Z,13.73
2022-09-26T07:42:38.689Z,13.71
2022-09-26T07:46:20.487Z,13.53
2022-09-26T07:48:13.860Z,13.48
2022-09-26T07:50:12.852Z,13.53
2022-09-26T07:52:07.610Z,13.54
2022-09-26T07:54:11.114Z,13.54
2022-09-26T07:56:19.584Z,13.58
2022-09-26T07:58:11.096Z,13.61
2022-09-26T08:00:01.425Z,13.64
2022-09-26T08:02:02.234Z,13.62
2022-09-26T08:03:38.767Z,13.63
2022-09-26T08:05:20.768Z,13.59
2022-09-26T08:06:54.269Z,13.58
2022-09-26T08:08:25.953Z,13.58
2022-09-26T08:10:05.447Z,13.55
2022-09-26T08:12:06.892Z,13.53
2022-09-26T08:13:50.447Z,13.52
2022-09-26T08:15:32.047Z,13.49
2022-09-26T08:17:14.083Z,13.49
2022-09-26T08:18:46.045Z,13.43
2022-09-26T08:20:18.379Z,13.40
2022-09-26T08:21:50.740Z,13.46
2022-09-26T08:23:23.526Z,13.44
2022-09-26T08:25:14.999Z,13.40
2022-09-26T08:26:56.778Z,13.41
2022-09-26T08:28:35.936Z,13.46
2022-09-26T08:30:08.329Z,13.41
2022-09-26T08:31:39.988Z,13.39
2022-09-26T08:33:12.420Z,13.39
2022-09-26T08:34:44.333Z,13.36
2022-09-26T08:36:52.053Z,13.36
2022-09-26T08:38:38.188Z,13.35
2022-09-26T08:40:43.902Z,13.36
2022-09-26T08:42:40.273Z,13.38
2022-09-26T08:44:38.190Z,13.37
2022-09-26T08:47:02.143Z,13.41
2022-09-26T08:49:08.262Z,13.48
2022-09-26T08:50:45.234Z,13.50
2022-09-26T08:52:26.177Z,13.53
2022-09-26T08:54:02.880Z,13.54
2022-09-26T08:55:36.647Z,13.54
2022-09-26T08:57:15.886Z,13.49
2022-09-26T08:58:52.028Z,13.47
2022-09-26T09:00:27.325Z,13.40
2022-09-26T09:02:12.383Z,13.43
2022-09-26T09:03:55.685Z,13.48
2022-09-26T09:05:28.483Z,13.50
2022-09-26T09:07:05.430Z,13.55
2022-09-26T09:08:38.723Z,13.58
2022-09-26T09:10:39.821Z,13.64
2022-09-26T09:12:31.371Z,13.64
2022-09-26T09:14:33.856Z,13.62
2022-09-26T09:16:32.749Z,13.64
2022-09-26T09:18:17.525Z,13.60
2022-09-26T09:20:34.131Z,13.62
2022-09-26T09:22:41.666Z,13.65
2022-09-26T09:24:22.745Z,13.68
2022-09-26T09:28:05.570Z,13.69
2022-09-26T09:29:52.493Z,13.72
2022-09-26T09:32:04.764Z,13.77
2022-09-26T09:34:02.270Z,13.76
2022-09-26T09:35:43.320Z,13.85
2022-09-26T09:37:41.827Z,13.82
2022-09-26T09:39:27.993Z,13.85
2022-09-26T09:41:07.304Z,13.97
2022-09-26T09:42:40.619Z,14.01
2022-09-26T09:44:18.749Z,14.06
2022-09-26T09:45:51.321Z,14.11
2022-09-26T09:47:27.130Z,14.11
2022-09-26T09:49:02.238Z,14.09
2022-09-26T09:50:39.761Z,14.11
2022-09-26T09:52:20.041Z,14.12
2022-09-26T09:54:01.885Z,14.13
2022-09-26T09:55:38.573Z,14.15
2022-09-26T09:57:19.752Z,14.18
2022-09-26T09:58:59.125Z,14.22
2022-09-26T10:00:32.917Z,14.23
2022-09-26T10:02:22.802Z,14.30
2022-09-26T10:04:01.225Z,14.41
2022-09-26T10:05:36.757Z,14.52
2022-09-26T10:07:08.911Z,14.62
2022-09-26T10:08:42.532Z,14.69
2022-09-26T10:10:37.761Z,14.69
2022-09-26T10:12:48.058Z,14.73
2022-09-26T10:14:42.678Z,14.75
2022-09-26T10:16:15.336Z,14.74
2022-09-26T10:18:23.366Z,14.69
2022-09-26T10:20:04.850Z,14.68
2022-09-26T10:21:43.321Z,14.67
2022-09-26T10:23:20.009Z,14.70
2022-09-26T10:24:53.240Z,14.71
2022-09-26T10:26:34.689Z,14.75
2022-09-26T10:28:21.897Z,14.80
2022-09-26T10:29:56.644Z,14.87
2022-09-26T10:31:29.791Z,14.94
2022-09-26T10:33:23.753Z,14.98
2022-09-26T10:35:19.938Z,15.01
2022-09-26T10:36:52.599Z,15.02
2022-09-26T10:38:27.312Z,15.05
2022-09-26T10:40:45.637Z,15.10
2022-09-26T10:42:20.064Z,15.16
2022-09-26T10:43:54.442Z,15.15
2022-09-26T10:45:44.432Z,15.24
2022-09-26T10:47:43.608Z,15.30
2022-09-26T10:49:55.766Z,15.33
2022-09-26T10:51:54.493Z,15.38
2022-09-26T10:53:31.131Z,15.44
2022-09-26T10:55:04.897Z,15.47
2022-09-26T10:56:37.775Z,15.51
2022-09-26T10:58:15.234Z,15.60
2022-09-26T10:59:48.311Z,15.64
2022-09-26T11:01:22.707Z,15.66
2022-09-26T11:02:54.296Z,15.66
2022-09-26T11:04:45.923Z,15.64
2022-09-26T11:06:43.998Z,15.66
2022-09-26T11:08:22.942Z,15.64
2022-09-26T11:10:14.375Z,15.67
2022-09-26T11:11:55.287Z,15.63
2022-09-26T11:13:32.190Z,15.63
2022-09-26T11:15:12.657Z,15.60
2022-09-26T11:16:51.205Z,15.55
2022-09-26T11:18:26.056Z,15.55
2022-09-26T11:20:02.604Z,15.55
2022-09-26T11:21:41.247Z,15.55
2022-09-26T11:23:21.031Z,15.61
2022-09-26T11:24:59.317Z,15.60
2022-09-26T11:26:34.112Z,15.56
2022-09-26T11:28:10.560Z,15.57
2022-09-26T11:30:14.939Z,15.62
2022-09-26T11:31:56.058Z,15.62
2022-09-26T11:33:30.995Z,15.70
2022-09-26T11:35:43.933Z,15.86
2022-09-26T11:37:30.495Z,15.99
2022-09-26T11:39:07.492Z,16.06
2022-09-26T11:41:07.228Z,16.16
2022-09-26T11:42:48.979Z,16.30
2022-09-26T11:44:35.403Z,16.39
2022-09-26T11:46:34.658Z,16.43
2022-09-26T11:48:37.324Z,16.46
2022-09-26T11:50:40.201Z,16.51
2022-09-26T11:52:29.564Z,16.56
2022-09-26T11:54:12.816Z,16.60
2022-09-26T11:55:54.332Z,16.56
2022-09-26T11:57:34.022Z,16.55
2022-09-26T11:59:17.228Z,16.51
2022-09-26T12:00:53.584Z,16.54
2022-09-26T12:02:38.112Z,16.50
2022-09-26T12:04:27.166Z,16.46
2022-09-26T12:06:01.832Z,16.42
2022-09-26T12:07:35.682Z,16.41
2022-09-26T12:09:15.726Z,16.39
2022-09-26T12:10:54.508Z,16.39
2022-09-26T12:12:34.078Z,16.35
2022-09-26T12:14:15.583Z,16.35
2022-09-26T12:15:55.890Z,16.35
2022-09-26T12:17:36.153Z,16.30
2022-09-26T12:19:16.713Z,16.27
2022-09-26T12:20:57.157Z,16.25
2022-09-26T12:22:33.311Z,16.25
2022-09-26T12:24:06.781Z,16.23
2022-09-26T12:25:43.276Z,16.19
2022-09-26T12:27:20.314Z,16.12
2022-09-26T12:29:09.034Z,16.07
2022-09-26T12:30:48.842Z,16.00
2022-09-26T12:32:25.631Z,15.94
2022-09-26T12:34:07.350Z,15.93
2022-09-26T12:35:43.777Z,15.85
2022-09-26T12:37:25.533Z,15.82
2022-09-26T12:39:10.234Z,15.81
2022-09-26T12:40:48.870Z,15.77
2022-09-26T12:42:27.290Z,15.66
2022-09-26T12:44:07.747Z,15.63
2022-09-26T12:45:53.123Z,15.60
2022-09-26T12:47:41.090Z,15.62
2022-09-26T12:49:21.644Z,15.65
2022-09-26T12:50:59.113Z,15.63
2022-09-26T12:52:37.499Z,15.59
2022-09-26T12:54:23.527Z,15.54
2022-09-26T12:56:01.211Z,15.53
2022-09-26T12:57:38.630Z,15.51
2022-09-26T12:59:16.527Z,15.52
2022-09-26T13:00:54.218Z,15.51
2022-09-26T13:02:36.096Z,15.44
2022-09-26T13:04:17.842Z,15.41
2022-09-26T13:06:08.982Z,15.40
2022-09-26T13:07:44.615Z,15.38
2022-09-26T13:09:21.958Z,15.40
2022-09-26T13:11:03.358Z,15.38
2022-09-26T13:12:43.106Z,15.33
2022-09-26T13:14:27.420Z,15.26
2022-09-26T13:16:05.045Z,15.31
2022-09-26T13:17:41.575Z,15.35
2022-09-26T13:19:16.493Z,15.40
2022-09-26T13:20:50.065Z,15.43
2022-09-26T13:22:29.360Z,15.43
2022-09-26T13:24:05.056Z,15.43
2022-09-26T13:25:44.825Z,15.41
2022-09-26T13:27:22.141Z,15.38
2022-09-26T13:29:16.140Z,15.38
2022-09-26T13:30:50.088Z,15.45
2022-09-26T13:32:26.830Z,15.43
2022-09-26T13:34:02.668Z,15.42
2022-09-26T13:35:35.936Z,15.45
2022-09-26T13:37:10.846Z,15.48
2022-09-26T13:38:45.932Z,15.45
2022-09-26T13:40:24.425Z,15.42
2022-09-26T13:42:01.800Z,15.38
2022-09-26T13:43:43.490Z,15.38
2022-09-26T13:45:21.098Z,15.38
2022-09-26T13:47:05.009Z,15.38
2022-09-26T13:48:41.888Z,15.38
2022-09-26T13:50:18.498Z,15.40
2022-09-26T13:52:04.964Z,15.38
2022-09-26T13:53:42.761Z,15.35
2022-09-26T13:55:18.372Z,15.37
2022-09-26T13:56:50.349Z,15.37
2022-09-26T13:58:25.262Z,15.37
2022-09-26T13:59:56.742Z,15.37
2022-09-26T14:01:28.345Z,15.38
2022-09-26T14:03:19.198Z,15.36
2022-09-26T14:04:52.770Z,15.33
2022-09-26T14:06:28.799Z,15.30
2022-09-26T14:08:38.768Z,15.26
2022-09-26T14:10:18.454Z,15.22
2022-09-26T14:11:51.311Z,15.22
2022-09-26T14:13:33.252Z,15.21
2022-09-26T14:15:16.876Z,15.25
2022-09-26T14:16:49.180Z,15.29
2022-09-26T14:18:28.103Z,15.30
2022-09-26T14:20:04.793Z,15.26
2022-09-26T14:21:41.049Z,15.25
2022-09-26T14:23:33.069Z,15.24
2022-09-26T14:25:24.644Z,15.24
2022-09-26T14:27:14.828Z,15.24
2022-09-26T14:28:49.983Z,15.22
2022-09-26T14:30:26.480Z,15.17
2022-09-26T14:32:01.306Z,15.14
2022-09-26T14:33:33.458Z,15.15
2022-09-26T14:35:16.674Z,15.16
2022-09-26T14:36:49.367Z,15.20
2022-09-26T14:38:21.254Z,15.20
2022-09-26T14:40:00.420Z,15.18
2022-09-26T14:41:33.388Z,15.15
2022-09-26T14:43:11.463Z,15.13
2022-09-26T14:44:48.577Z,15.11
2022-09-26T14:46:23.758Z,15.09
2022-09-26T14:48:13.544Z,15.08
2022-09-26T14:49:52.109Z,15.02
2022-09-26T14:51:27.573Z,14.96
2022-09-26T14:53:01.856Z,14.93
2022-09-26T14:54:36.887Z,14.92
2022-09-26T14:56:10.064Z,14.92
2022-09-26T14:57:41.639Z,14.92
2022-09-26T14:59:40.278Z,14.85
2022-09-26T15:01:18.000Z,14.85
2022-09-26T15:02:57.592Z,14.82
2022-09-26T15:04:32.951Z,14.73
2022-09-26T15:06:08.719Z,14.73
2022-09-26T15:07:45.602Z,14.72
2022-09-26T15:09:18.618Z,14.70
2022-09-26T15:10:51.076Z,14.68
2022-09-26T15:12:26.018Z,14.65
2022-09-26T15:13:59.798Z,14.64
2022-09-26T15:15:41.564Z,14.65
2022-09-26T15:17:16.534Z,14.66
2022-09-26T15:18:50.211Z,14.64
2022-09-26T15:20:22.648Z,14.64
2022-09-26T15:21:58.346Z,14.65
2022-09-26T15:23:32.883Z,14.63
2022-09-26T15:25:08.366Z,14.61
2022-09-26T15:26:42.831Z,14.60
2022-09-26T15:28:14.668Z,14.59
2022-09-26T15:29:49.318Z,14.55
2022-09-26T15:31:22.824Z,14.48
2022-09-26T15:32:56.194Z,14.47
2022-09-26T15:34:31.681Z,14.48
2022-09-26T15:36:06.327Z,14.47
2022-09-26T15:37:38.086Z,14.44
2022-09-26T15:39:24.463Z,14.40
2022-09-26T15:41:01.305Z,14.36
2022-09-26T15:42:51.385Z,14.27
2022-09-26T15:44:24.015Z,14.24
2022-09-26T15:45:58.180Z,14.20
2022-09-26T15:47:42.883Z,14.21
2022-09-26T15:49:18.247Z,14.22
2022-09-26T15:50:51.652Z,14.27
2022-09-26T15:52:23.267Z,14.28
2022-09-26T15:53:57.763Z,14.32
2022-09-26T15:55:30.883Z,14.38
2022-09-26T15:57:07.940Z,14.42
2022-09-26T15:58:45.343Z,14.40
2022-09-26T16:00:17.579Z,14.40
2022-09-26T16:01:49.368Z,14.40
2022-09-26T16:03:34.313Z,14.45
2022-09-26T16:05:12.889Z,14.50
2022-09-26T16:06:52.720Z,14.58
2022-09-26T16:08:27.563Z,14.62
2022-09-26T16:09:59.506Z,14.62
2022-09-26T16:11:32.789Z,14.64
2022-09-26T16:13:05.764Z,14.62
2022-09-26T16:14:41.602Z,14.63
2022-09-26T16:16:15.789Z,14.62
2022-09-26T16:17:50.568Z,14.59
2022-09-26T16:19:29.764Z,14.61
2022-09-26T16:21:15.099Z,14.59
2022-09-26T16:22:51.016Z,14.58
2022-09-26T16:24:29.271Z,14.59
2022-09-26T16:26:00.998Z,14.57
2022-09-26T16:27:34.000Z,14.56
2022-09-26T16:29:08.350Z,14.53
2022-09-26T16:30:41.599Z,14.51
2022-09-26T16:32:17.944Z,14.49
2022-09-26T16:33:50.833Z,14.48
2022-09-26T16:35:28.623Z,14.43
2022-09-26T16:37:03.177Z,14.43
2022-09-26T16:38:35.962Z,14.40
2022-09-26T16:40:17.188Z,14.37
2022-09-26T16:42:01.696Z,14.39
2022-09-26T16:43:36.195Z,14.46
2022-09-26T16:45:13.933Z,14.48
2022-09-26T16:46:49.019Z,14.50
2022-09-26T16:48:34.811Z,14.48
2022-09-26T16:50:26.490Z,14.43
2022-09-26T16:52:16.482Z,14.34
2022-09-26T16:53:49.677Z,14.19
2022-09-26T16:55:21.953Z,14.15
2022-09-26T16:56:53.458Z,14.09
2022-09-26T16:58:25.999Z,14.01
2022-09-26T17:00:18.618Z,13.97
2022-09-26T17:01:53.572Z,13.97
2022-09-26T17:03:26.419Z,13.93
2022-09-26T17:04:58.321Z,13.89
2022-09-26T17:06:30.889Z,13.84
2022-09-26T17:08:02.464Z,13.86
2022-09-26T17:09:34.382Z,13.86
2022-09-26T17:11:13.429Z,13.83
2022-09-26T17:12:48.925Z,13.85
2022-09-26T17:14:22.281Z,13.87
2022-09-26T17:16:01.001Z,13.89
2022-09-26T17:17:34.626Z,13.86
2022-09-26T17:19:06.221Z,13.87
2022-09-26T17:20:38.928Z,13.82
2022-09-26T17:22:13.125Z,13.83
2022-09-26T17:23:44.724Z,13.82
2022-09-26T17:25:16.291Z,13.79
2022-09-26T17:26:50.537Z,13.77
2022-09-26T17:28:26.066Z,13.74
2022-09-26T17:29:59.511Z,13.71
2022-09-26T17:31:34.518Z,13.68
2022-09-26T17:33:10.237Z,13.70
2022-09-26T17:34:41.889Z,13.65
2022-09-26T17:36:18.143Z,13.63
2022-09-26T17:37:49.703Z,13.60
2022-09-26T17:39:25.439Z,13.58
2022-09-26T17:40:57.510Z,13.57
2022-09-26T17:42:30.280Z,13.55
2022-09-26T17:44:02.020Z,13.50
2022-09-26T17:45:35.020Z,13.47
2022-09-26T17:47:07.138Z,13.47
2022-09-26T17:48:40.924Z,13.45
2022-09-26T17:50:16.832Z,13.40
2022-09-26T17:51:49.074Z,13.38
2022-09-26T17:53:20.829Z,13.37
2022-09-26T17:54:55.699Z,13.39
2022-09-26T17:56:27.343Z,13.40
2022-09-26T17:57:59.689Z,13.36
2022-09-26T17:59:31.291Z,13.34
2022-09-26T18:01:04.353Z,13.27
2022-09-26T18:02:37.389Z,13.16
2022-09-26T18:04:17.439Z,13.07
2022-09-26T18:05:49.301Z,13.07
2022-09-26T18:07:22.355Z,13.10
2022-09-26T18:08:54.977Z,13.13
2022-09-26T18:10:30.500Z,13.13
2022-09-26T18:12:03.951Z,13.16
2022-09-26T18:13:36.636Z,13.16
2022-09-26T18:15:13.572Z,13.14
2022-09-26T18:16:46.507Z,13.16
2022-09-26T18:18:18.894Z,13.14
2022-09-26T18:19:52.038Z,13.18
2022-09-26T18:21:24.167Z,13.18
2022-09-26T18:22:55.718Z,13.17
2022-09-26T18:24:28.634Z,13.10
2022-09-26T18:26:00.291Z,13.05
2022-09-26T18:27:36.715Z,12.99
2022-09-26T18:29:10.855Z,12.92
2022-09-26T18:30:42.943Z,12.92
2022-09-26T18:32:19.814Z,12.97
2022-09-26T18:33:51.365Z,13.08
2022-09-26T18:35:25.329Z,13.21
2022-09-26T18:37:00.378Z,13.34
2022-09-26T18:38:32.022Z,13.42
2022-09-26T18:40:04.498Z,13.46
2022-09-26T18:41:36.996Z,13.43
2022-09-26T18:43:11.144Z,13.38
2022-09-26T18:44:43.024Z,13.36
2022-09-26T18:46:16.718Z,13.28
2022-09-26T18:47:49.194Z,13.27
2022-09-26T18:49:21.118Z,13.21
2022-09-26T18:50:54.419Z,13.24
2022-09-26T18:52:26.295Z,13.28
2022-09-26T18:53:57.901Z,13.33
2022-09-26T18:55:48.461Z,13.35
2022-09-26T18:57:38.374Z,13.40
2022-09-26T18:59:10.154Z,13.48
2022-09-26T19:00:41.879Z,13.53
2022-09-26T19:02:19.494Z,13.48
2022-09-26T19:03:51.550Z,13.39
2022-09-26T19:05:23.054Z,13.36
2022-09-26T19:06:58.870Z,13.34
2022-09-26T19:08:33.530Z,13.34
2022-09-26T19:10:05.258Z,13.34
2022-09-26T19:11:36.953Z,13.31
2022-09-26T19:13:10.005Z,13.30
2022-09-26T19:14:41.832Z,13.33
2022-09-26T19:16:13.481Z,13.32
2022-09-26T19:17:45.079Z,13.31
2022-09-26T19:19:16.927Z,13.31
2022-09-26T19:20:48.821Z,13.28
2022-09-26T19:22:21.726Z,13.26
2022-09-26T19:23:53.747Z,13.19
2022-09-26T19:25:25.838Z,13.18
2022-09-26T19:26:58.444Z,13.22
2022-09-26T19:28:32.602Z,13.27
2022-09-26T19:30:05.169Z,13.30
2022-09-26T19:31:36.732Z,13.33
2022-09-26T19:33:09.354Z,13.32
2022-09-26T19:34:40.911Z,13.31
2022-09-26T19:36:13.508Z,13.29
2022-09-26T19:37:46.826Z,13.29
2022-09-26T19:39:18.944Z,13.34
2022-09-26T19:40:53.882Z,13.39
2022-09-26T19:42:26.261Z,13.41
2022-09-26T19:43:57.766Z,13.42
2022-09-26T19:45:32.319Z,13.40
2022-09-26T19:47:04.674Z,13.34
2022-09-26T19:48:38.869Z,13.29
2022-09-26T19:50:13.216Z,13.29
2022-09-26T19:51:44.984Z,13.25
2022-09-26T19:53:19.377Z,13.23
2022-09-26T19:54:50.894Z,13.26
2022-09-26T19:56:22.445Z,13.23
2022-09-26T19:57:54.371Z,13.18
2022-09-26T19:59:27.668Z,13.14
2022-09-26T20:01:02.064Z,13.15
2022-09-26T20:02:33.752Z,13.18
2022-09-26T20:04:12.950Z,13.23
2022-09-26T20:05:45.042Z,13.30
2022-09-26T20:07:18.251Z,13.36
2022-09-26T20:08:53.760Z,13.39
2022-09-26T20:10:27.074Z,13.44
2022-09-26T20:11:58.575Z,13.51
2022-09-26T20:13:50.175Z,13.51
2022-09-26T20:15:21.887Z,13.52
2022-09-26T20:16:56.064Z,13.48
2022-09-26T20:18:27.643Z,13.50
2022-09-26T20:19:59.323Z,13.46
2022-09-26T20:21:31.220Z,13.41
2022-09-26T20:23:02.773Z,13.41
2022-09-26T20:24:37.234Z,13.41
2022-09-26T20:26:09.838Z,13.35
2022-09-26T20:27:41.391Z,13.32
2022-09-26T20:29:14.714Z,13.26
2022-09-26T20:30:52.672Z,13.24
2022-09-26T20:32:24.338Z,13.14
2022-09-26T20:33:59.892Z,13.12
2022-09-26T20:35:35.497Z,13.12
2022-09-26T20:37:09.754Z,13.09
2022-09-26T20:38:45.929Z,13.11
2022-09-26T20:40:20.112Z,13.10
2022-09-26T20:41:52.001Z,13.06
2022-09-26T20:43:27.382Z,13.03
2022-09-26T20:44:59.171Z,13.01
2022-09-26T20:46:32.016Z,13.01
2022-09-26T20:48:04.261Z,13.07
2022-09-26T20:49:39.934Z,13.05
2022-09-26T20:51:17.801Z,13.01
2022-09-26T20:52:49.557Z,13.05
2022-09-26T20:54:25.457Z,13.12
2022-09-26T20:55:58.819Z,13.19
2022-09-26T20:57:30.924Z,13.20
2022-09-26T20:59:02.812Z,13.23
2022-09-26T21:00:35.306Z,13.27
2022-09-26T21:02:23.057Z,13.30
2022-09-26T21:03:55.451Z,13.35